Time;durP1;ratioP1;P1;durP2;ratioP2;P2;SDS_P1;SDS_P2;PMS_P1;PMS_P2;Temp;Humidity;BMP_temperature;BMP_pressure;BME280_temperature;BME280_humidity;BME280_pressure;Samples;Min_cycle;Max_cycle;Signal;HPM_P1;HPM_P2
2022/01/26 00:07:49;;;;;;;;;34.00;29.50;;;;;4.98;65.57;102914.03;5022423;28;45600;-88
2022/01/26 00:10:15;;;;;;;;;41.50;32.75;;;;;5.02;64.93;102911.41;5027537;28;45376;-90
2022/01/26 00:12:40;;;;;;;;;35.50;28.75;;;;;5.06;65.21;102896.47;5018445;28;48189;-89
2022/01/26 00:15:07;;;;;;;;;35.50;30.00;;;;;4.76;65.42;102855.91;5008603;28;46295;-86
2022/01/26 00:17:33;;;;;;;;;34.25;28.75;;;;;5.03;64.71;102909.66;5014736;28;45393;-86
2022/01/26 00:20:09;;;;;;;;;35.75;30.50;;;;;5.01;64.88;102903.50;5018698;28;45500;-86
2022/01/26 00:27:56;;;;;;;;;36.50;29.50;;;;;5.10;64.68;102907.03;4977646;28;45455;-87
2022/01/26 00:34:17;;;;;;;;;31.75;30.50;;;;;5.02;64.05;102894.69;4982020;28;45452;-88
2022/01/26 00:38:42;;;;;;;;;28.00;24.75;;;;;4.95;64.11;102879.72;4981420;28;45718;-89
2022/01/26 00:41:16;;;;;;;;;34.25;31.25;;;;;5.07;64.52;102906.13;4978953;28;45514;-88
2022/01/26 00:43:47;;;;;;;;;32.25;27.25;;;;;5.05;64.60;102899.97;4980186;28;45488;-88
2022/01/26 00:46:13;;;;;;;;;29.75;25.75;;;;;4.89;64.16;102875.31;4978978;28;46316;-88
2022/01/26 00:48:40;;;;;;;;;28.75;28.00;;;;;5.07;64.13;102907.00;4980157;28;45447;-88
2022/01/26 00:51:07;;;;;;;;;34.00;28.50;;;;;4.98;64.14;102892.91;4979626;28;45687;-89
2022/01/26 00:53:37;;;;;;;;;40.50;26.75;;;;;5.01;64.10;102906.13;4977722;28;48378;-89
2022/01/26 00:56:05;;;;;;;;;30.00;27.50;;;;;5.05;64.64;102921.97;4980597;28;45927;-88
2022/01/26 00:58:31;;;;;;;;;36.00;28.75;;;;;5.05;64.29;102898.22;4979476;28;45439;-88
2022/01/26 01:00:59;;;;;;;;;26.50;26.00;;;;;4.87;64.52;102871.78;4981535;28;45472;-88
2022/01/26 01:03:26;;;;;;;;;38.25;29.25;;;;;5.07;64.62;102914.03;4994648;28;48629;-87
2022/01/26 01:08:22;;;;;;;;;35.00;29.00;;;;;5.01;64.54;102925.47;5017355;28;45286;-87
2022/01/26 01:10:50;;;;;;;;;26.50;22.00;;;;;4.99;64.80;102895.56;5021375;28;45670;-87
2022/01/26 01:13:19;;;;;;;;;36.50;27.00;;;;;4.82;64.80;102895.53;5020286;28;45513;-87
2022/01/26 01:15:45;;;;;;;;;36.75;26.75;;;;;4.84;64.90;102867.38;5022140;28;45667;-87
2022/01/26 01:18:23;;;;;;;;;42.50;32.50;;;;;4.91;64.54;102900.81;5022999;28;45506;-88
2022/01/26 01:31:41;;;;;;;;;37.00;28.00;;;;;4.74;64.77;102893.72;5022711;28;45405;-87
2022/01/26 01:34:08;;;;;;;;;29.00;22.75;;;;;4.70;65.41;102891.09;5023013;28;45312;-87
2022/01/26 01:36:36;;;;;;;;;31.00;26.50;;;;;4.76;64.87;102916.59;5024729;28;45377;-87
2022/01/26 01:39:03;;;;;;;;;29.75;24.50;;;;;4.56;65.23;102891.94;5018870;28;45573;-88
2022/01/26 01:41:28;;;;;;;;;32.75;30.75;;;;;4.61;65.26;102887.53;5016412;28;47332;-88
2022/01/26 01:43:53;;;;;;;;;34.00;28.00;;;;;4.69;65.01;102885.81;5021281;28;46144;-88
2022/01/26 01:46:19;;;;;;;;;25.25;22.25;;;;;4.59;65.66;102887.53;5022309;28;45317;-87
2022/01/26 01:48:44;;;;;;;;;31.50;26.00;;;;;4.63;65.29;102909.53;5019868;28;45556;-88
2022/01/26 01:51:13;;;;;;;;;26.50;23.25;;;;;4.59;65.46;102876.09;5019664;28;45723;-88
2022/01/26 01:53:41;;;;;;;;;32.75;25.00;;;;;4.52;64.86;102871.69;5018750;28;47347;-88
2022/01/26 01:56:09;;;;;;;;;34.25;29.50;;;;;4.80;65.26;102914.88;5022142;28;45556;-88
2022/01/26 01:58:36;;;;;;;;;29.50;24.25;;;;;4.80;65.06;102926.28;5024090;28;45414;-87
2022/01/26 02:01:01;;;;;;;;;30.50;25.50;;;;;4.80;64.97;102914.88;5020340;28;45436;-88
2022/01/26 02:03:27;;;;;;;;;30.00;25.00;;;;;4.52;65.22;102887.50;5017239;28;45310;-87
2022/01/26 02:05:52;;;;;;;;;34.25;24.75;;;;;4.73;65.14;102915.72;5019060;28;45394;-88
2022/01/26 02:08:18;;;;;;;;;27.50;26.00;;;;;4.58;65.20;102898.97;5015442;28;45328;-87
2022/01/26 02:10:44;;;;;;;;;32.50;28.25;;;;;4.49;65.19;102904.19;5019670;28;45449;-88
2022/01/26 02:13:20;;;;;;;;;25.75;21.25;;;;;4.72;65.26;102935.09;5037034;28;46582;-87
2022/01/26 02:15:57;;;;;;;;;30.75;25.75;;;;;4.52;65.39;102891.00;5039866;28;45420;-87
2022/01/26 02:18:55;;;;;;;;;20.50;17.00;;;;;4.62;65.54;102894.59;5035132;28;45294;-87
2022/01/26 02:51:41;;;;;;;;;35.25;27.50;;;;;5.06;64.81;102907.03;5036892;28;45364;-88
2022/01/26 02:54:38;;;;;;;;;37.50;29.25;;;;;4.98;64.77;102891.19;5039983;28;45535;-88
2022/01/26 03:05:02;;;;;;;;;30.25;26.50;;;;;5.00;65.09;102875.31;5036174;28;45377;-86
2022/01/26 03:10:03;;;;;;;;;29.50;25.00;;;;;5.12;64.43;102886.81;5047037;28;45333;-88
2022/01/26 03:12:38;;;;;;;;;31.75;26.50;;;;;4.99;63.93;102886.78;5041453;28;45543;-89
2022/01/26 03:15:13;;;;;;;;;28.25;25.00;;;;;4.94;64.32;102857.72;5038278;28;45542;-89
2022/01/26 03:18:18;;;;;;;;;28.50;22.75;;;;;4.90;64.75;102871.78;5034499;28;46569;-88
2022/01/26 03:20:44;;;;;;;;;25.00;21.00;;;;;5.04;64.23;102872.69;5034665;28;45943;-88
2022/01/26 03:28:44;;;;;;;;;28.25;24.75;;;;;5.04;64.00;102890.28;5018150;28;45831;-89
2022/01/26 03:36:57;;;;;;;;;27.00;22.75;;;;;5.13;64.07;102883.28;5034699;28;45475;-89
2022/01/26 03:39:25;;;;;;;;;23.75;22.75;;;;;5.10;64.34;102877.13;5016842;28;47816;-88
2022/01/26 03:41:56;;;;;;;;;34.00;25.00;;;;;5.12;64.28;102880.63;5016450;28;45405;-88
2022/01/26 03:44:21;;;;;;;;;30.00;23.50;;;;;4.85;64.22;102841.88;5034629;28;45571;-89
2022/01/26 03:46:48;;;;;;;;;26.50;19.50;;;;;5.05;64.35;102881.47;5034466;28;45606;-89
2022/01/26 03:49:14;;;;;;;;;28.25;21.50;;;;;4.79;64.05;102850.66;5034756;28;45719;-88
2022/01/26 03:51:41;;;;;;;;;25.50;24.50;;;;;5.07;64.00;102882.38;5035391;28;45428;-89
2022/01/26 03:54:07;;;;;;;;;34.00;30.75;;;;;5.03;63.77;102886.78;5035051;28;45458;-89
2022/01/26 03:56:34;;;;;;;;;31.50;23.00;;;;;5.11;64.00;102887.66;5033628;28;45682;-88
2022/01/26 03:58:59;;;;;;;;;32.75;27.25;;;;;5.10;64.47;102895.59;5034839;28;46045;-88
2022/01/26 04:01:25;;;;;;;;;30.00;23.25;;;;;5.02;64.59;102886.78;5016612;28;45492;-86
2022/01/26 04:03:50;;;;;;;;;29.50;24.75;;;;;5.12;64.50;102884.16;5035552;28;45636;-86
2022/01/26 04:06:17;;;;;;;;;35.75;28.50;;;;;4.98;64.15;102858.59;5034618;28;45336;-87
2022/01/26 04:08:44;;;;;;;;;36.75;27.00;;;;;5.05;64.08;102866.56;5034634;28;45543;-87
2022/01/26 04:13:52;;;;;;;;;38.25;29.00;;;;;5.22;64.06;102899.97;5034876;28;45453;-86
2022/01/26 04:16:17;;;;;;;;;36.00;29.25;;;;;5.07;64.04;102866.53;5016537;28;45505;-87
2022/01/26 04:18:43;;;;;;;;;38.25;30.00;;;;;5.22;64.41;102874.50;5017010;28;47179;-87
2022/01/26 04:21:29;;;;;;;;;42.50;35.75;;;;;5.21;64.21;102864.78;5034325;28;45434;-87
2022/01/26 04:24:00;;;;;;;;;33.25;33.00;;;;;5.03;63.76;102859.50;5033951;28;45428;-87
2022/01/26 04:26:32;;;;;;;;;34.50;28.00;;;;;5.21;64.04;102856.88;5034140;28;45547;-87
2022/01/26 04:29:03;;;;;;;;;35.50;29.25;;;;;5.24;63.80;102877.09;5034237;28;46297;-86
2022/01/26 04:31:28;;;;;;;;;33.50;29.25;;;;;5.22;63.66;102869.22;5032707;28;45371;-87
2022/01/26 04:33:54;;;;;;;;;29.50;26.25;;;;;5.10;64.16;102863.91;5016973;28;45374;-86
2022/01/26 04:36:29;;;;;;;;;44.75;35.75;;;;;5.27;63.63;102869.22;5034256;28;45348;-87
2022/01/26 04:38:59;;;;;;;;;37.00;31.00;;;;;5.29;63.88;102870.97;5034064;28;45547;-87
2022/01/26 04:43:53;;;;;;;;;43.25;33.00;;;;;5.13;63.97;102843.66;5036536;28;45389;-86
2022/01/26 04:46:19;;;;;;;;;44.25;33.00;;;;;5.21;63.41;102858.63;5037643;28;45500;-87
2022/01/26 04:48:44;;;;;;;;;46.00;33.25;;;;;5.10;63.48;102850.72;5038087;28;45594;-86
2022/01/26 04:51:10;;;;;;;;;40.75;32.75;;;;;5.14;63.94;102881.50;5019672;28;45910;-86
2022/01/26 04:53:35;;;;;;;;;43.25;36.00;;;;;5.10;64.00;102856.00;5037658;28;45420;-86
2022/01/26 04:56:00;;;;;;;;;41.25;33.25;;;;;5.25;63.53;102879.75;5037686;28;47142;-86
2022/01/26 04:58:26;;;;;;;;;44.75;38.25;;;;;5.22;64.30;102871.84;5037380;28;46449;-87
2022/01/26 05:00:51;;;;;;;;;39.25;33.00;;;;;5.06;63.69;102865.66;5037763;28;45452;-87
2022/01/26 05:03:17;;;;;;;;;46.00;37.50;;;;;4.87;64.44;102841.00;5019644;28;45542;-86
2022/01/26 05:05:42;;;;;;;;;37.00;32.75;;;;;5.02;64.12;102866.53;5037353;28;45486;-87
2022/01/26 05:08:07;;;;;;;;;43.00;33.25;;;;;4.95;64.68;102855.97;5037452;28;46122;-87
2022/01/26 05:10:34;;;;;;;;;46.25;37.25;;;;;4.96;64.24;102844.53;5037258;28;45321;-87
2022/01/26 05:13:00;;;;;;;;;44.25;37.50;;;;;5.05;64.18;102857.72;5038018;28;45305;-87
2022/01/26 05:15:26;;;;;;;;;41.75;34.25;;;;;5.17;64.37;102864.78;5036977;28;45563;-86
2022/01/26 05:17:51;;;;;;;;;46.25;36.25;;;;;5.13;63.89;102872.72;5037059;28;45539;-86
2022/01/26 05:20:17;;;;;;;;;54.25;40.75;;;;;5.17;63.93;102870.06;5018993;28;47863;-86
2022/01/26 05:22:44;;;;;;;;;46.75;39.00;;;;;5.18;63.88;102859.50;5037552;28;45377;-86
2022/01/26 05:25:11;;;;;;;;;38.75;36.00;;;;;5.21;63.87;102863.91;5037516;28;45463;-87
2022/01/26 05:27:37;;;;;;;;;50.50;37.00;;;;;5.24;63.51;102861.25;5037439;28;45399;-87
2022/01/26 05:30:04;;;;;;;;;44.25;34.25;;;;;5.21;63.37;102846.31;5036502;28;45526;-87
2022/01/26 05:32:29;;;;;;;;;50.50;39.75;;;;;5.23;63.97;102851.59;5036990;28;45495;-89
2022/01/26 05:34:54;;;;;;;;;47.00;39.75;;;;;5.19;63.63;102840.13;5037106;28;45395;-89
2022/01/26 05:37:20;;;;;;;;;53.75;40.75;;;;;5.36;63.65;102868.31;5036953;28;46425;-89
2022/01/26 05:39:45;;;;;;;;;52.25;41.25;;;;;5.19;63.76;102839.25;5037121;28;45401;-89
2022/01/26 05:42:11;;;;;;;;;51.25;43.25;;;;;5.34;63.78;102847.22;5036924;28;45371;-89
2022/01/26 05:44:36;;;;;;;;;53.75;42.25;;;;;5.37;63.14;102841.03;5036468;28;45436;-87
2022/01/26 05:47:04;;;;;;;;;56.75;43.75;;;;;5.17;63.13;102827.81;5036595;28;46510;-86
2022/01/26 05:49:30;;;;;;;;;43.25;39.50;;;;;5.25;63.44;102813.75;5018871;28;45732;-86
2022/01/26 05:51:55;;;;;;;;;48.25;39.25;;;;;5.29;63.38;102841.94;5037537;28;45551;-87
2022/01/26 05:54:21;;;;;;;;;46.25;36.75;;;;;5.37;63.51;102852.47;5035419;28;45361;-86
2022/01/26 05:56:47;;;;;;;;;45.25;37.75;;;;;5.24;63.30;102826.94;5036750;28;46350;-86
2022/01/26 05:59:19;;;;;;;;;47.75;41.00;;;;;5.40;63.87;102844.53;5018269;28;45420;-86
2022/01/26 06:01:46;;;;;;;;;45.25;39.00;;;;;5.39;63.71;102840.16;5018614;28;45558;-87
2022/01/26 06:04:11;;;;;;;;;47.75;37.75;;;;;5.36;63.38;102831.34;5036876;28;45447;-87
2022/01/26 06:06:37;;;;;;;;;42.00;32.25;;;;;5.25;63.54;102826.94;5036414;28;45357;-87
2022/01/26 06:09:02;;;;;;;;;43.75;37.75;;;;;5.42;63.58;102853.34;5036192;28;45452;-87
2022/01/26 06:11:27;;;;;;;;;53.25;41.25;;;;;5.49;63.38;102862.16;5018273;28;45431;-87
2022/01/26 06:13:55;;;;;;;;;49.50;39.25;;;;;5.34;63.91;102841.94;5036270;28;45459;-87
2022/01/26 06:16:20;;;;;;;;;55.25;40.50;;;;;5.48;63.14;102865.66;5036500;28;46477;-87
2022/01/26 06:18:45;;;;;;;;;49.00;38.25;;;;;5.41;62.70;102874.47;5036772;28;45383;-87
2022/01/26 06:21:11;;;;;;;;;53.50;40.50;;;;;5.54;63.02;102869.19;5036018;28;45591;-87
2022/01/26 06:23:36;;;;;;;;;55.00;42.00;;;;;5.50;62.62;102875.34;5036185;28;45294;-87
2022/01/26 06:26:01;;;;;;;;;44.75;37.75;;;;;5.48;62.98;102884.16;5036213;28;46323;-87
2022/01/26 06:28:28;;;;;;;;;53.75;42.50;;;;;5.52;62.63;102888.56;5017886;28;45536;-87
2022/01/26 06:31:08;;;;;;;;;53.75;43.00;;;;;5.60;63.06;102885.91;5036552;28;45348;-87
2022/01/26 06:33:35;;;;;;;;;53.75;41.25;;;;;5.63;62.16;102901.75;5035961;28;45527;-87
2022/01/26 06:36:01;;;;;;;;;54.00;42.50;;;;;5.64;62.59;102911.47;5035351;28;45604;-86
2022/01/26 06:38:30;;;;;;;;;49.50;38.50;;;;;5.65;62.60;102910.56;5017098;28;46948;-87
2022/01/26 06:40:57;;;;;;;;;43.50;37.75;;;;;5.43;62.31;102878.88;5015895;28;45396;-89
2022/01/26 06:43:26;;;;;;;;;43.50;37.25;;;;;5.45;61.96;102886.81;5035781;28;45293;-87
2022/01/26 06:45:59;;;;;;;;;53.75;41.00;;;;;5.62;61.93;102907.94;5017458;28;47713;-88
2022/01/26 06:51:00;;;;;;;;;53.75;42.25;;;;;5.48;61.65;102931.69;5035228;28;45538;-88
2022/01/26 06:53:25;;;;;;;;;53.75;43.25;;;;;5.55;61.96;102929.06;5035750;28;45424;-88
2022/01/26 06:55:50;;;;;;;;;54.00;42.50;;;;;5.57;61.81;102938.75;5034874;28;45455;-88
2022/01/26 06:58:16;;;;;;;;;56.25;43.25;;;;;5.61;61.92;102932.59;5035478;28;45390;-88
2022/01/26 07:00:42;;;;;;;;;51.75;43.25;;;;;5.53;62.12;102922.91;5015693;28;45439;-88
2022/01/26 07:03:07;;;;;;;;;50.00;38.25;;;;;5.62;61.98;102926.44;5034292;28;45661;-88
2022/01/26 07:05:33;;;;;;;;;57.25;41.25;;;;;5.65;62.20;102929.97;5036012;28;45349;-88
2022/01/26 07:07:58;;;;;;;;;53.75;44.75;;;;;5.51;62.30;102929.97;5035373;28;45306;-88
2022/01/26 07:10:23;;;;;;;;;47.75;40.50;;;;;5.42;62.02;102895.63;5034722;28;45313;-88
2022/01/26 07:12:49;;;;;;;;;56.25;44.50;;;;;5.61;62.23;102928.19;5017091;28;45708;-88
2022/01/26 07:23:39;;;;;;;;;57.50;43.75;;;;;5.67;62.10;102920.25;5034810;28;45463;-88
2022/01/26 07:26:04;;;;;;;;;58.25;45.75;;;;;5.54;61.66;102900.00;5034368;28;46783;-88
2022/01/26 07:28:35;;;;;;;;;56.75;41.50;;;;;5.51;61.52;102922.03;5034842;28;45401;-88
2022/01/26 07:31:00;;;;;;;;;56.00;41.75;;;;;5.57;61.83;102909.69;5016211;28;45817;-88
2022/01/26 07:33:26;;;;;;;;;55.50;38.50;;;;;5.50;61.78;102908.81;5034408;28;45446;-88
2022/01/26 07:35:51;;;;;;;;;57.00;42.75;;;;;5.58;61.45;102932.59;5034162;28;46500;-88
2022/01/26 07:38:17;;;;;;;;;52.00;41.25;;;;;5.75;63.21;102930.84;5032101;28;45797;-88
2022/01/26 07:40:42;;;;;;;;;56.25;42.25;;;;;5.79;62.04;102929.94;5021847;28;45579;-87
2022/01/26 07:43:07;;;;;;;;;54.75;42.75;;;;;5.70;61.76;102927.28;5034518;28;45469;-88
2022/01/26 07:45:33;;;;;;;;;51.25;42.00;;;;;5.59;61.45;102911.47;5028082;28;45454;-88
2022/01/26 07:47:58;;;;;;;;;54.00;43.75;;;;;5.55;61.95;102897.34;5030988;28;45450;-88
2022/01/26 07:50:24;;;;;;;;;53.50;41.25;;;;;5.77;61.72;102939.63;5019673;28;45463;-88
2022/01/26 07:52:50;;;;;;;;;55.25;44.00;;;;;5.64;61.69;102920.25;5033886;28;45598;-88
2022/01/26 07:55:18;;;;;;;;;53.75;42.25;;;;;5.73;62.08;102944.03;5030122;28;46000;-88
2022/01/26 07:57:45;;;;;;;;;55.00;44.00;;;;;5.73;61.47;102951.97;5016532;28;45653;-88
2022/01/26 08:00:11;;;;;;;;;57.75;44.00;;;;;5.61;62.08;102935.25;5015924;28;45490;-88
2022/01/26 08:02:37;;;;;;;;;54.25;41.25;;;;;5.79;62.08;102959.00;5020745;28;45602;-88
2022/01/26 08:05:02;;;;;;;;;53.50;42.50;;;;;5.82;61.71;102950.19;5033888;28;45489;-87
2022/01/26 08:07:28;;;;;;;;;49.25;41.50;;;;;5.65;61.41;102919.41;5035738;28;45547;-88
2022/01/26 08:09:53;;;;;;;;;59.00;44.00;;;;;5.65;61.36;102914.13;5034549;28;45763;-88
2022/01/26 08:12:19;;;;;;;;;56.75;41.75;;;;;5.77;61.54;102936.97;5034128;28;45455;-88
2022/01/26 08:14:44;;;;;;;;;58.50;45.25;;;;;5.78;61.31;102936.13;5034216;28;46220;-88
2022/01/26 08:17:10;;;;;;;;;52.75;42.75;;;;;5.73;60.99;102914.09;5033628;28;45469;-88
2022/01/26 08:19:36;;;;;;;;;61.00;44.25;;;;;5.75;61.29;102915.84;5037725;28;45415;-88
2022/01/26 08:22:05;;;;;;;;;45.75;39.25;;;;;5.88;61.22;102944.91;5020639;28;45354;-88
2022/01/26 08:24:31;;;;;;;;;58.50;44.75;;;;;5.66;61.08;102894.72;5033272;28;45646;-88
2022/01/26 08:27:03;;;;;;;;;59.75;44.00;;;;;5.82;61.07;102934.34;5019402;28;46257;-88
2022/01/26 08:29:39;;;;;;;;;56.75;45.00;;;;;5.59;61.61;102900.03;5037858;28;45506;-89
2022/01/26 08:32:04;;;;;;;;;45.75;38.25;;;;;5.85;61.20;102900.88;5019768;28;45618;-89
2022/01/26 08:34:30;;;;;;;;;55.75;41.75;;;;;5.58;61.13;102899.16;5037194;28;46321;-89
2022/01/26 08:36:55;;;;;;;;;48.00;39.00;;;;;5.65;60.57;102889.44;5034343;28;45396;-89
2022/01/26 08:39:21;;;;;;;;;44.75;39.00;;;;;5.72;60.98;102907.03;5024779;28;49142;-89
2022/01/26 08:41:47;;;;;;;;;53.25;43.00;;;;;5.83;60.77;102918.50;5042347;28;45550;-89
2022/01/26 08:44:12;;;;;;;;;51.75;39.00;;;;;5.64;60.50;102892.97;5037034;28;45572;-89
2022/01/26 08:46:38;;;;;;;;;55.00;40.50;;;;;5.78;60.97;102914.97;5037271;28;45431;-89
2022/01/26 08:49:04;;;;;;;;;47.75;41.00;;;;;5.76;60.74;102928.19;5037989;28;45518;-89
2022/01/26 08:51:30;;;;;;;;;52.50;39.50;;;;;5.78;61.05;102940.53;5037106;28;45535;-89
2022/01/26 08:53:56;;;;;;;;;48.25;42.25;;;;;5.84;61.07;102972.22;5036788;28;45527;-89
2022/01/26 08:56:21;;;;;;;;;55.00;42.00;;;;;5.61;60.92;102917.63;5037057;28;45407;-88
2022/01/26 08:58:46;;;;;;;;;54.75;44.00;;;;;5.92;60.54;102957.25;5037522;28;45496;-89
2022/01/26 09:01:12;;;;;;;;;55.75;43.25;;;;;5.80;60.61;102939.66;5035298;28;45442;-90
2022/01/26 09:03:39;;;;;;;;;59.00;45.75;;;;;5.78;60.53;102922.03;5023250;28;47045;-89
2022/01/26 09:06:08;;;;;;;;;53.50;40.75;;;;;5.74;60.49;102942.28;5035855;28;45501;-89
2022/01/26 09:08:34;;;;;;;;;50.00;41.25;;;;;5.91;60.97;102947.53;5019250;28;45590;-89
2022/01/26 09:11:01;;;;;;;;;58.50;44.25;;;;;5.88;60.66;102932.56;5035158;28;45293;-89
2022/01/26 09:13:32;;;;;;;;;50.50;42.50;;;;;5.78;60.63;102940.53;5025339;28;46257;-89
2022/01/26 09:16:00;;;;;;;;;52.00;40.25;;;;;5.80;60.98;102923.78;5021916;28;45419;-89
2022/01/26 09:21:06;;;;;;;;;54.25;42.00;;;;;5.91;60.72;102969.56;5030989;28;45510;-89
2022/01/26 09:23:33;;;;;;;;;53.25;42.25;;;;;5.67;60.92;102937.88;5007529;28;48496;-90
2022/01/26 09:25:58;;;;;;;;;59.25;43.50;;;;;5.70;60.87;102970.47;5021530;28;45503;-89
2022/01/26 09:28:26;;;;;;;;;56.75;46.00;;;;;5.79;61.27;102960.78;5022229;28;45467;-90
2022/01/26 09:30:52;;;;;;;;;62.75;48.75;;;;;5.80;61.30;102959.88;5028792;28;45426;-89
2022/01/26 09:33:17;;;;;;;;;55.00;42.25;;;;;5.81;61.53;102991.59;5028392;28;45476;-88
2022/01/26 09:35:44;;;;;;;;;60.00;46.50;;;;;5.90;61.57;103011.88;5031100;28;45673;-89
2022/01/26 09:38:10;;;;;;;;;52.75;42.25;;;;;5.82;61.15;102969.59;5003090;28;45582;-89
2022/01/26 09:40:35;;;;;;;;;64.25;47.00;;;;;5.71;61.02;102943.16;5032304;28;45741;-89
2022/01/26 09:43:01;;;;;;;;;46.25;40.25;;;;;5.82;61.48;102977.53;5028463;28;46564;-89
2022/01/26 09:45:28;;;;;;;;;59.25;46.25;;;;;5.78;61.17;102981.03;5010475;28;45521;-89
2022/01/26 09:47:53;;;;;;;;;56.75;44.00;;;;;5.67;61.36;102965.16;5028721;28;45497;-89
2022/01/26 09:50:19;;;;;;;;;60.25;46.50;;;;;5.66;61.56;102966.06;5027330;28;45453;-89
2022/01/26 09:52:47;;;;;;;;;59.25;44.00;;;;;5.80;61.70;102967.81;5034712;28;47023;-89
2022/01/26 09:55:14;;;;;;;;;59.50;46.50;;;;;5.91;61.27;103000.41;5036365;28;45389;-89
2022/01/26 09:57:41;;;;;;;;;55.00;41.50;;;;;5.80;61.70;102967.81;5017766;28;45482;-89
2022/01/26 10:00:09;;;;;;;;;53.75;43.00;;;;;6.02;61.33;103003.09;5036338;28;45502;-89
2022/01/26 10:02:35;;;;;;;;;44.50;36.50;;;;;5.87;61.68;102980.13;5036235;28;46532;-89
2022/01/26 10:05:08;;;;;;;;;53.25;42.25;;;;;6.04;62.02;103009.25;5007558;28;45508;-89
2022/01/26 10:08:14;;;;;;;;;53.75;41.75;;;;;5.88;61.88;102981.91;5019367;28;45509;-89
2022/01/26 10:16:15;;;;;;;;;53.00;40.75;;;;;6.15;61.19;103031.28;5035176;28;45391;-89
2022/01/26 10:18:41;;;;;;;;;45.00;36.50;;;;;6.04;61.67;102989.00;5036816;28;45435;-87
2022/01/26 10:21:08;;;;;;;;;55.25;41.50;;;;;5.93;61.79;102949.31;5038278;28;45524;-87
2022/01/26 10:23:42;;;;;;;;;56.25;45.00;;;;;6.23;61.45;102997.78;5035839;28;46104;-87
2022/01/26 10:26:13;;;;;;;;;50.00;39.75;;;;;6.08;61.19;102977.50;5017837;28;45325;-87
2022/01/26 10:28:57;;;;;;;;;48.75;40.00;;;;;6.25;61.53;103003.06;5020496;28;45467;-87
2022/01/26 10:31:39;;;;;;;;;46.75;39.75;;;;;5.94;61.76;102948.47;5036047;28;45251;-87
2022/01/26 10:34:10;;;;;;;;;55.50;42.75;;;;;6.13;61.81;103004.88;5031888;28;45396;-87
2022/01/26 10:36:40;;;;;;;;;57.25;45.00;;;;;6.00;61.50;102973.13;5035542;28;45464;-87
2022/01/26 10:39:20;;;;;;;;;47.75;40.00;;;;;5.96;61.58;102941.44;5017591;28;45348;-87
2022/01/26 10:41:47;;;;;;;;;54.00;42.50;;;;;6.17;61.33;102979.28;5035188;28;45420;-86
2022/01/26 10:44:12;;;;;;;;;30.75;25.00;;;;;6.30;61.53;103033.94;5035322;28;45510;-87
2022/01/26 10:46:42;;;;;;;;;56.00;43.00;;;;;6.06;61.37;102976.66;5035719;28;45597;-87
2022/01/26 10:51:54;;;;;;;;;50.50;39.25;;;;;6.15;61.66;102988.97;5036038;28;45360;-89
2022/01/26 10:56:53;;;;;;;;;56.00;44.75;;;;;6.16;61.86;102965.19;5033063;28;45474;-89
2022/01/26 10:59:19;;;;;;;;;55.25;45.25;;;;;6.06;62.16;102957.25;5035390;28;45365;-89
2022/01/26 11:01:45;;;;;;;;;58.75;43.25;;;;;6.05;61.88;102966.94;5016398;28;45510;-89
2022/01/26 11:04:11;;;;;;;;;49.25;39.75;;;;;6.13;62.37;102974.88;5017193;28;47544;-89
2022/01/26 11:06:40;;;;;;;;;44.25;37.00;;;;;6.12;62.46;102959.91;5026618;28;45432;-89
2022/01/26 11:09:13;;;;;;;;;50.50;39.25;;;;;6.16;61.98;102946.66;5030833;28;45554;-89
2022/01/26 11:11:41;;;;;;;;;56.75;43.75;;;;;6.21;62.24;102951.94;5034974;28;45522;-88
2022/01/26 11:14:15;;;;;;;;;46.50;37.00;;;;;6.07;62.32;102929.94;5035057;28;45389;-88
2022/01/26 11:16:49;;;;;;;;;46.00;37.25;;;;;6.00;62.22;102922.91;5032308;28;45560;-89
2022/01/26 11:19:17;;;;;;;;;55.00;45.25;;;;;6.31;62.60;102961.63;5035051;28;45375;-88
2022/01/26 11:21:43;;;;;;;;;49.50;40.25;;;;;6.33;62.44;102951.91;5024308;28;45357;-89
2022/01/26 11:24:23;;;;;;;;;49.75;40.00;;;;;6.39;62.37;102954.53;5034964;28;46183;-86
2022/01/26 11:27:02;;;;;;;;;43.50;36.00;;;;;6.32;61.88;102955.44;5034834;28;45480;-89
2022/01/26 11:29:33;;;;;;;;;47.25;38.00;;;;;6.44;62.53;102940.41;5034268;28;45466;-86
2022/01/26 11:32:11;;;;;;;;;45.25;37.25;;;;;6.40;62.22;102964.25;5015182;28;45410;-86
2022/01/26 11:34:37;;;;;;;;;53.00;41.75;;;;;6.38;62.48;102952.78;5017885;28;45587;-86
2022/01/26 11:37:07;;;;;;;;;59.25;45.50;;;;;6.19;62.27;102928.16;5034139;28;45717;-87
2022/01/26 11:45:15;;;;;;;;;53.75;42.25;;;;;6.43;62.50;102941.31;5035831;28;45561;-87
2022/01/26 11:47:45;;;;;;;;;53.50;39.50;;;;;6.35;62.37;102922.78;5015299;28;45496;-87
2022/01/26 11:50:20;;;;;;;;;55.50;40.75;;;;;6.26;62.47;102902.56;5015088;28;45568;-86
2022/01/26 11:52:59;;;;;;;;;51.75;40.25;;;;;6.37;62.35;102894.59;5014654;28;45575;-88
2022/01/26 11:55:32;;;;;;;;;54.75;43.25;;;;;6.55;62.32;102909.53;5033463;28;45482;-87
2022/01/26 11:58:31;;;;;;;;;58.00;42.25;;;;;6.47;62.33;102898.97;5016158;28;45436;-87
2022/01/26 12:01:20;;;;;;;;;56.25;42.00;;;;;6.35;62.62;102904.28;5017962;28;45573;-87
2022/01/26 12:03:59;;;;;;;;;58.75;46.00;;;;;6.44;62.64;102898.97;5033430;28;45492;-88
2022/01/26 12:06:29;;;;;;;;;53.75;41.75;;;;;6.50;62.63;102891.00;5019947;28;46563;-89
2022/01/26 12:08:58;;;;;;;;;56.50;44.75;;;;;6.53;62.89;102887.47;5008329;28;45454;-91
2022/01/26 12:11:24;;;;;;;;;44.50;36.75;;;;;6.63;62.77;102889.19;5014907;28;45397;-90
2022/01/26 12:14:18;;;;;;;;;47.50;38.25;;;;;6.68;62.57;102897.09;5011929;28;45667;-88
2022/01/26 12:16:47;;;;;;;;;50.50;41.50;;;;;6.51;62.65;102868.94;5024563;28;45889;-90
2022/01/26 12:19:45;;;;;;;;;38.00;34.50;;;;;6.78;62.03;102902.34;5014971;28;45327;-89
2022/01/26 12:34:07;;;;;;;;;45.75;36.75;;;;;6.86;62.22;102883.78;5023914;28;45424;-88
2022/01/26 12:36:58;;;;;;;;;47.00;39.25;;;;;6.82;61.97;102871.44;5031868;28;45595;-88
2022/01/26 12:42:11;;;;;;;;;40.00;36.50;;;;;6.95;61.84;102885.47;5033671;28;47307;-85
2022/01/26 12:44:36;;;;;;;;;47.00;35.00;;;;;6.88;62.03;102881.09;5034432;28;45353;-87
2022/01/26 12:47:03;;;;;;;;;48.25;36.00;;;;;6.99;61.63;102898.69;5030738;28;45660;-86
2022/01/26 12:49:28;;;;;;;;;36.75;30.50;;;;;6.80;61.83;102860.84;5028249;28;46389;-87
2022/01/26 12:51:54;;;;;;;;;47.25;33.50;;;;;7.03;62.16;102897.78;5032429;28;45409;-87
2022/01/26 12:54:20;;;;;;;;;36.25;29.75;;;;;7.04;61.86;102907.47;5030173;28;45609;-86
2022/01/26 12:56:47;;;;;;;;;39.50;33.00;;;;;7.00;61.74;102889.88;5030259;28;45356;-86
2022/01/26 12:59:16;;;;;;;;;41.50;37.25;;;;;7.02;61.48;102888.09;5011838;28;46594;-86
2022/01/26 13:01:42;;;;;;;;;43.00;37.00;;;;;6.77;61.66;102857.34;5011631;28;45888;-86
2022/01/26 13:04:11;;;;;;;;;42.00;37.50;;;;;6.89;61.76;102870.50;5034007;28;45886;-87
2022/01/26 13:06:41;;;;;;;;;42.50;37.75;;;;;6.95;62.07;102872.22;5016663;28;45638;-87
2022/01/26 13:09:27;;;;;;;;;53.00;42.00;;;;;6.99;61.68;102876.63;5032799;28;46130;-87
2022/01/26 13:11:56;;;;;;;;;44.50;37.25;;;;;7.00;61.69;102881.91;5018060;28;46259;-87
2022/01/26 13:14:26;;;;;;;;;58.00;43.50;;;;;6.91;61.83;102860.78;5022835;28;45578;-87
2022/01/26 13:17:02;;;;;;;;;64.00;49.00;;;;;7.01;61.38;102870.44;5033714;28;45602;-87
2022/01/26 13:19:52;;;;;;;;;64.50;50.75;;;;;6.99;61.31;102872.19;5016832;28;48379;-87
2022/01/26 13:25:13;;;;;;;;;68.00;50.50;;;;;6.84;61.50;102853.78;5026754;28;46555;-89
2022/01/26 13:36:04;;;;;;;;;65.75;50.50;;;;;6.75;61.02;102832.66;5032847;28;45448;-88
2022/01/26 13:38:47;;;;;;;;;62.00;49.50;;;;;6.91;61.16;102868.75;5016372;28;45638;-88
2022/01/26 13:44:34;;;;;;;;;72.00;54.25;;;;;6.80;61.36;102855.56;5037687;28;45562;-88
2022/01/26 13:49:47;;;;;;;;;65.75;51.25;;;;;6.86;60.72;102869.66;5030432;28;45377;-89
2022/01/26 13:57:41;;;;;;;;;64.50;51.25;;;;;6.90;60.92;102869.59;5032904;28;45446;-88
2022/01/26 13:59:58;;;;;;;;;68.75;51.25;;;;;6.65;60.30;102846.84;5034869;28;45488;-88